5G7 weather

Bluffton Airport
Bluffton, Ohio, United States

Public forecast

Using degrees Fahrenheit for public forecast. Weather courtesy of forecast.io.

METAR (pilot weather report)

Closest report is Findlay Airport, 11.9 nm (22.0 km) NE. Retrieved 2019/03/26 23:53 UTC (55 minutes ago):

KFDY 262353Z AUTO 05010KT 10SM CLR 03/M11 A3039 RMK AO2 SLP297 T00331106 10078 20033 55000

TAF (pilot weather forecast)

Forecast is more than 12 hours old.

Closest forecast is Findlay Airport, 11.9 nm (22.0 km) NE. Retrieved 2019/03/26 00:30 UTC (1 day ago):

TAF KFDY 262327Z 2700/2724 06006KT P6SM SKC FM270100 09003KT P6SM SKC FM271500 20008KT P6SM SKC